createdAt,value
2023-04-02T00:01:39.454Z,96912.69
2023-04-02T00:04:26.353Z,96914.75
2023-04-02T00:06:56.806Z,96913.69
2023-04-02T00:09:31.986Z,96911.88
2023-04-02T00:12:00.522Z,96918.03
2023-04-02T00:14:32.760Z,96920.09
2023-04-02T00:17:02.756Z,96928.50
2023-04-02T00:19:37.718Z,96925.44
2023-04-02T00:22:09.616Z,96926.28
2023-04-02T00:24:42.116Z,96918.00
2023-04-02T00:27:13.362Z,96929.34
2023-04-02T00:29:48.982Z,96927.69
2023-04-02T00:32:22.475Z,96928.94
2023-04-02T00:34:51.684Z,96939.84
2023-04-02T00:37:27.277Z,96944.78
2023-04-02T00:40:02.018Z,96945.56
2023-04-02T00:42:32.073Z,96944.34
2023-04-02T00:45:09.718Z,96947.00
2023-04-02T00:47:49.107Z,96947.44
2023-04-02T00:50:29.156Z,96949.50
2023-04-02T00:53:09.968Z,96949.69
2023-04-02T00:55:41.381Z,96955.44
2023-04-02T00:58:26.515Z,96958.75
2023-04-02T01:01:00.426Z,96957.91
2023-04-02T01:03:40.829Z,96959.78
2023-04-02T01:09:19.007Z,96963.69
2023-04-02T01:12:05.744Z,96965.56
2023-04-02T01:14:56.551Z,96965.94
2023-04-02T01:17:49.960Z,96965.94
2023-04-02T01:20:47.736Z,96974.75
2023-04-02T01:23:26.180Z,96973.53
2023-04-02T01:26:05.916Z,96980.56
2023-04-02T01:28:51.833Z,96967.16
2023-04-02T01:31:19.733Z,96978.88
2023-04-02T01:33:48.623Z,96977.66
2023-04-02T01:36:26.135Z,96977.03
2023-04-02T01:39:02.086Z,96988.34
2023-04-02T01:41:35.600Z,96989.41
2023-04-02T01:44:08.741Z,96986.91
2023-04-02T01:46:41.527Z,96991.22
2023-04-02T01:49:14.563Z,96999.84
2023-04-02T01:51:46.690Z,96995.13
2023-04-02T01:54:17.929Z,96996.38
2023-04-02T01:56:47.297Z,96997.13
2023-04-02T01:59:18.252Z,96999.44
2023-04-02T02:01:51.850Z,97002.97
2023-04-02T02:04:19.817Z,97011.16
2023-04-02T02:06:48.215Z,97008.28
2023-04-02T02:09:23.177Z,97005.66
2023-04-02T02:11:51.860Z,97003.75
2023-04-02T02:14:23.409Z,97015.09
2023-04-02T02:16:53.441Z,97022.88
2023-04-02T02:19:28.172Z,97016.94
2023-04-02T02:21:58.021Z,97023.69
2023-04-02T02:24:31.566Z,97028.59
2023-04-02T02:27:17.180Z,97028.94
2023-04-02T02:29:50.372Z,97031.84
2023-04-02T02:32:20.596Z,97031.25
2023-04-02T02:34:53.366Z,97038.19
2023-04-02T02:37:26.218Z,97039.63
2023-04-02T02:39:57.175Z,97037.88
2023-04-02T02:42:31.164Z,97045.84
2023-04-02T02:45:02.970Z,97048.59
2023-04-02T02:47:34.563Z,97047.50
2023-04-02T02:50:06.638Z,97055.31
2023-04-02T02:52:38.058Z,97060.91
2023-04-02T02:55:09.045Z,97053.56
2023-04-02T02:57:41.622Z,97063.00
2023-04-02T03:00:12.962Z,97062.06
2023-04-02T03:02:43.317Z,97058.94
2023-04-02T03:05:17.095Z,97066.16
2023-04-02T03:07:45.136Z,97065.38
2023-04-02T03:10:17.971Z,97070.66
2023-04-02T03:12:52.634Z,97074.84
2023-04-02T03:15:28.399Z,97075.00
2023-04-02T03:18:01.547Z,97085.25
2023-04-02T03:20:37.156Z,97082.59
2023-04-02T03:23:13.896Z,97081.25
2023-04-02T03:25:47.149Z,97086.63
2023-04-02T03:28:20.288Z,97094.44
2023-04-02T03:30:53.826Z,97096.91
2023-04-02T03:33:26.278Z,97104.84
2023-04-02T03:35:58.838Z,97099.78
2023-04-02T03:38:31.850Z,97101.88
2023-04-02T03:41:04.269Z,97105.47
2023-04-02T03:43:35.936Z,97115.56
2023-04-02T03:46:17.493Z,97113.75
2023-04-02T03:48:49.004Z,97114.47
2023-04-02T03:51:23.186Z,97117.97
2023-04-02T03:53:51.010Z,97117.09
2023-04-02T03:56:29.056Z,97114.81
2023-04-02T03:59:07.185Z,97118.50
2023-04-02T04:01:40.555Z,97126.47
2023-04-02T04:04:14.879Z,97130.88
2023-04-02T04:06:43.999Z,97126.66
2023-04-02T04:09:17.814Z,97126.31
2023-04-02T04:11:47.323Z,97127.59
2023-04-02T04:14:19.195Z,97136.19
2023-04-02T04:16:53.566Z,97135.09
2023-04-02T04:19:32.473Z,97134.69
2023-04-02T04:22:10.924Z,97149.38
2023-04-02T04:24:39.718Z,97145.69
2023-04-02T04:27:13.575Z,97153.63
2023-04-02T04:29:47.988Z,97157.78
2023-04-02T04:32:27.289Z,97159.59
2023-04-02T04:35:00.955Z,97161.63
2023-04-02T04:37:35.085Z,97167.91
2023-04-02T04:40:12.823Z,97170.22
2023-04-02T04:42:44.899Z,97176.84
2023-04-02T04:45:28.293Z,97186.59
2023-04-02T04:48:02.588Z,97185.09
2023-04-02T04:50:33.884Z,97196.78
2023-04-02T04:53:06.863Z,97197.28
2023-04-02T04:55:39.550Z,97194.13
2023-04-02T04:58:18.975Z,97205.94
2023-04-02T05:00:57.596Z,97208.34
2023-04-02T05:03:32.084Z,97198.94
2023-04-02T05:06:04.783Z,97203.97
2023-04-02T05:08:37.811Z,97201.69
2023-04-02T05:11:11.311Z,97210.44
2023-04-02T05:13:45.560Z,97216.34
2023-04-02T05:16:19.856Z,97221.22
2023-04-02T05:18:54.014Z,97231.81
2023-04-02T05:21:27.220Z,97229.28
2023-04-02T05:23:59.861Z,97237.81
2023-04-02T05:26:31.878Z,97234.72
2023-04-02T05:29:07.601Z,97239.56
2023-04-02T05:31:42.905Z,97237.75
2023-04-02T05:34:13.236Z,97241.66
2023-04-02T05:36:40.997Z,97247.13
2023-04-02T05:39:10.843Z,97243.94
2023-04-02T05:41:41.431Z,97252.16
2023-04-02T05:44:15.903Z,97253.41
2023-04-02T05:46:48.431Z,97248.59
2023-04-02T05:49:25.146Z,97259.38
2023-04-02T05:51:57.578Z,97264.28
2023-04-02T05:54:31.865Z,97252.50
2023-04-02T05:57:03.312Z,97271.91
2023-04-02T05:59:34.977Z,97268.78
2023-04-02T06:02:06.440Z,97271.28
2023-04-02T06:04:41.971Z,97280.75
2023-04-02T06:07:12.283Z,97282.22
2023-04-02T06:09:45.826Z,97285.25
2023-04-02T06:12:28.350Z,97301.38
2023-04-02T06:14:56.029Z,97297.47
2023-04-02T06:17:23.766Z,97295.72
2023-04-02T06:19:55.443Z,97302.69
2023-04-02T06:22:28.300Z,97307.19
2023-04-02T06:25:01.561Z,97306.75
2023-04-02T06:27:30.163Z,97315.28
2023-04-02T06:30:01.774Z,97310.25
2023-04-02T06:32:29.363Z,97324.00
2023-04-02T06:35:00.829Z,97323.22
2023-04-02T06:37:32.891Z,97326.59
2023-04-02T06:40:01.969Z,97328.13
2023-04-02T06:42:32.502Z,97324.22
2023-04-02T06:45:00.396Z,97334.81
2023-04-02T06:47:33.076Z,97340.97
2023-04-02T06:50:09.037Z,97347.50
2023-04-02T06:52:41.123Z,97346.75
2023-04-02T06:55:28.349Z,97352.22
2023-04-02T06:57:55.900Z,97358.41
2023-04-02T07:00:37.075Z,97358.88
2023-04-02T07:03:07.988Z,97365.13
2023-04-02T07:05:37.117Z,97362.97
2023-04-02T07:08:04.830Z,97370.53
2023-04-02T07:10:32.322Z,97374.91
2023-04-02T07:13:02.284Z,97374.84
2023-04-02T07:15:30.288Z,97375.22
2023-04-02T07:17:59.050Z,97378.91
2023-04-02T07:20:29.647Z,97386.06
2023-04-02T07:22:58.607Z,97385.47
2023-04-02T07:25:27.696Z,97383.50
2023-04-02T07:27:55.787Z,97390.50
2023-04-02T07:30:23.702Z,97388.72
2023-04-02T07:32:51.300Z,97403.53
2023-04-02T07:35:18.818Z,97408.69
2023-04-02T07:37:46.495Z,97401.19
2023-04-02T07:40:20.689Z,97408.09
2023-04-02T07:42:48.233Z,97412.06
2023-04-02T07:45:16.012Z,97415.81
2023-04-02T07:47:43.983Z,97423.06
2023-04-02T07:50:11.901Z,97421.56
2023-04-02T07:52:41.989Z,97422.38
2023-04-02T07:55:10.735Z,97435.97
2023-04-02T07:57:42.619Z,97434.66
2023-04-02T08:00:12.940Z,97445.81
2023-04-02T08:02:40.509Z,97441.13
2023-04-02T08:05:08.860Z,97446.22
2023-04-02T08:07:36.435Z,97459.72
2023-04-02T08:10:04.460Z,97464.50
2023-04-02T08:12:32.130Z,97471.53
2023-04-02T08:15:01.146Z,97475.13
2023-04-02T08:17:31.307Z,97477.16
2023-04-02T08:20:00.883Z,97495.03
2023-04-02T08:22:28.916Z,97501.09
2023-04-02T08:24:57.247Z,97499.81
2023-04-02T08:27:25.139Z,97503.78
2023-04-02T08:29:52.760Z,97503.88
2023-04-02T08:32:21.939Z,97517.75
2023-04-02T08:34:49.388Z,97516.63
2023-04-02T08:37:16.939Z,97522.34
2023-04-02T08:39:44.409Z,97522.81
2023-04-02T08:42:23.220Z,97543.13
2023-04-02T08:45:08.125Z,97537.94
2023-04-02T08:47:45.241Z,97542.41
2023-04-02T08:50:20.668Z,97541.66
2023-04-02T08:52:48.137Z,97548.38
2023-04-02T08:55:23.706Z,97567.22
2023-04-02T08:57:57.089Z,97563.09
2023-04-02T09:00:32.827Z,97562.56
2023-04-02T09:03:07.034Z,97567.19
2023-04-02T09:05:38.285Z,97575.00
2023-04-02T09:08:14.877Z,97580.44
2023-04-02T09:10:50.841Z,97581.25
2023-04-02T09:13:24.466Z,97591.91
2023-04-02T09:15:56.362Z,97583.13
2023-04-02T09:18:26.066Z,97597.34
2023-04-02T09:20:53.721Z,97597.88
2023-04-02T09:23:24.867Z,97605.75
2023-04-02T09:26:03.599Z,97611.09
2023-04-02T09:28:31.910Z,97618.03
2023-04-02T09:31:06.929Z,97619.72
2023-04-02T09:33:43.960Z,97618.66
2023-04-02T09:36:35.890Z,97628.09
2023-04-02T09:39:08.128Z,97640.16
2023-04-02T09:41:37.322Z,97631.38
2023-04-02T09:44:22.807Z,97634.91
2023-04-02T09:46:59.467Z,97637.34
2023-04-02T09:49:30.916Z,97643.44
2023-04-02T09:52:27.397Z,97644.91
2023-04-02T09:55:21.659Z,97658.78
2023-04-02T09:57:50.966Z,97657.69
2023-04-02T10:00:31.362Z,97668.28
2023-04-02T10:03:06.817Z,97664.72
2023-04-02T10:08:09.916Z,97677.41
2023-04-02T10:10:42.769Z,97682.34
2023-04-02T10:13:20.459Z,97685.09
2023-04-02T10:15:54.450Z,97684.81
2023-04-02T10:18:31.184Z,97685.25
2023-04-02T10:21:02.022Z,97692.78
2023-04-02T10:23:31.557Z,97701.03
2023-04-02T10:26:09.875Z,97698.44
2023-04-02T10:28:51.183Z,97699.09
2023-04-02T10:31:22.406Z,97700.03
2023-04-02T10:33:52.921Z,97705.69
2023-04-02T10:36:30.252Z,97709.31
2023-04-02T10:39:05.037Z,97716.13
2023-04-02T10:41:38.599Z,97719.34
2023-04-02T10:44:25.503Z,97713.16
2023-04-02T10:47:05.198Z,97720.34
2023-04-02T10:49:41.876Z,97738.00
2023-04-02T10:52:16.879Z,97735.81
2023-04-02T10:54:49.390Z,97744.13
2023-04-02T10:57:27.751Z,97744.19
2023-04-02T10:59:58.491Z,97746.50
2023-04-02T11:02:39.530Z,97746.50
2023-04-02T11:05:18.188Z,97761.25
2023-04-02T11:08:01.824Z,97759.38
2023-04-02T11:10:34.773Z,97766.38
2023-04-02T11:13:06.838Z,97773.66
2023-04-02T11:15:36.705Z,97766.69
2023-04-02T11:18:04.896Z,97773.00
2023-04-02T11:20:58.285Z,97786.88
2023-04-02T11:23:29.111Z,97780.66
2023-04-02T11:26:30.513Z,97791.19
2023-04-02T11:29:12.984Z,97785.34
2023-04-02T11:31:40.942Z,97795.59
2023-04-02T11:34:13.937Z,97790.69
2023-04-02T11:37:08.153Z,97801.94
2023-04-02T11:39:55.176Z,97808.56
2023-04-02T11:42:26.558Z,97809.03
2023-04-02T11:44:54.395Z,97808.81
2023-04-02T11:47:23.068Z,97815.25
2023-04-02T11:50:11.670Z,97816.34
2023-04-02T11:52:52.906Z,97818.91
2023-04-02T11:55:33.577Z,97822.38
2023-04-02T11:58:38.056Z,97830.06
2023-04-02T12:01:38.348Z,97832.72
2023-04-02T12:04:40.059Z,97832.44
2023-04-02T12:07:34.992Z,97848.59
2023-04-02T12:10:06.004Z,97853.38
2023-04-02T12:12:38.998Z,97856.66
2023-04-02T12:15:33.028Z,97859.34
2023-04-02T12:18:07.372Z,97864.16
2023-04-02T12:20:36.004Z,97865.00
2023-04-02T12:23:03.856Z,97866.00
2023-04-02T12:25:33.970Z,97870.63
2023-04-02T12:28:09.318Z,97873.66
2023-04-02T12:30:38.040Z,97880.81
2023-04-02T12:33:15.640Z,97881.00
2023-04-02T12:35:44.456Z,97888.31
2023-04-02T12:38:22.333Z,97889.50
2023-04-02T12:40:53.890Z,97895.44
2023-04-02T12:43:30.175Z,97892.78
2023-04-02T12:46:00.283Z,97901.63
2023-04-02T12:48:29.293Z,97904.97
2023-04-02T12:50:57.829Z,97907.28
2023-04-02T12:53:30.458Z,97915.78
2023-04-02T12:55:58.114Z,97908.16
2023-04-02T12:58:33.391Z,97913.66
2023-04-02T13:01:11.766Z,97921.63
2023-04-02T13:03:39.314Z,97921.31
2023-04-02T13:06:21.197Z,97929.09
2023-04-02T13:08:48.879Z,97922.47
2023-04-02T13:11:16.601Z,97917.81
2023-04-02T13:13:46.956Z,97917.97
2023-04-02T13:16:34.966Z,97923.13
2023-04-02T13:19:23.005Z,97927.13
2023-04-02T13:21:51.711Z,97921.97
2023-04-02T13:24:20.715Z,97930.28
2023-04-02T13:26:49.822Z,97932.13
2023-04-02T13:29:23.614Z,97928.78
2023-04-02T13:31:54.603Z,97938.31
2023-04-02T13:34:22.517Z,97941.25
2023-04-02T13:36:50.060Z,97944.13
2023-04-02T13:39:19.304Z,97949.25
2023-04-02T13:41:49.240Z,97948.94
2023-04-02T13:44:23.927Z,97950.63
2023-04-02T13:46:52.133Z,97947.44
2023-04-02T13:49:20.232Z,97957.25
2023-04-02T13:51:49.987Z,97961.44
2023-04-02T13:54:24.914Z,97948.75
2023-04-02T13:56:52.563Z,97962.28
2023-04-02T13:59:21.426Z,97965.56
2023-04-02T14:01:49.894Z,97973.72
2023-04-02T14:04:22.455Z,97972.91
2023-04-02T14:07:27.203Z,97978.06
2023-04-02T14:10:06.200Z,97980.06
2023-04-02T14:12:46.876Z,98005.88
2023-04-02T14:15:28.882Z,98010.53
2023-04-02T14:18:14.677Z,98017.41
2023-04-02T14:20:51.602Z,98025.56
2023-04-02T14:23:33.494Z,98032.84
2023-04-02T14:26:09.125Z,98029.22
2023-04-02T14:28:44.347Z,98030.13
2023-04-02T14:31:23.342Z,98034.09
2023-04-02T14:34:02.484Z,98045.94
2023-04-02T14:36:41.657Z,98045.38
2023-04-02T14:39:19.039Z,98042.72
2023-04-02T14:41:51.526Z,98043.47
2023-04-02T14:44:23.949Z,98043.50
2023-04-02T14:46:57.821Z,98054.09
2023-04-02T14:49:31.378Z,98062.69
2023-04-02T14:52:05.703Z,98055.94
2023-04-02T14:54:50.074Z,98052.88
2023-04-02T14:57:30.509Z,98058.56
2023-04-02T15:00:08.299Z,98062.84
2023-04-02T15:02:49.379Z,98067.69
2023-04-02T15:05:30.042Z,98066.91
2023-04-02T15:08:01.536Z,98073.66
2023-04-02T15:10:38.469Z,98072.19
2023-04-02T15:13:19.676Z,98076.75
2023-04-02T15:16:01.531Z,98075.19
2023-04-02T15:18:30.385Z,98082.34
2023-04-02T15:21:26.250Z,98078.88
2023-04-02T15:24:44.126Z,98084.34
2023-04-02T15:27:40.614Z,98090.84
2023-04-02T15:30:15.544Z,98090.13
2023-04-02T15:32:46.438Z,98095.59
2023-04-02T15:35:22.389Z,98097.06
2023-04-02T15:38:19.460Z,98096.53
2023-04-02T15:41:06.202Z,98112.81
2023-04-02T15:43:42.825Z,98116.03
2023-04-02T15:46:18.565Z,98110.34
2023-04-02T15:49:06.062Z,98111.91
2023-04-02T15:51:51.236Z,98120.47
2023-04-02T15:54:33.671Z,98133.50
2023-04-02T15:57:30.261Z,98126.72
2023-04-02T16:00:27.950Z,98135.38
2023-04-02T16:03:17.318Z,98153.59
2023-04-02T16:05:54.613Z,98148.56
2023-04-02T16:08:50.298Z,98158.22
2023-04-02T16:11:17.744Z,98161.28
2023-04-02T16:13:45.500Z,98162.47
2023-04-02T16:16:32.290Z,98156.06
2023-04-02T16:19:06.383Z,98166.50
2023-04-02T16:21:49.990Z,98159.56
2023-04-02T16:24:17.604Z,98166.06
2023-04-02T16:26:53.342Z,98170.66
2023-04-02T16:29:53.386Z,98177.13
2023-04-02T16:32:39.220Z,98177.03
2023-04-02T16:37:58.342Z,98177.59
2023-04-02T16:40:37.797Z,98186.56
2023-04-02T16:43:17.897Z,98192.84
2023-04-02T16:46:12.611Z,98195.28
2023-04-02T16:48:51.731Z,98206.13
2023-04-02T16:51:28.661Z,98204.56
2023-04-02T16:54:13.411Z,98210.91
2023-04-02T16:56:57.515Z,98217.34
2023-04-02T16:59:48.233Z,98219.00
2023-04-02T17:02:38.404Z,98221.34
2023-04-02T17:05:37.081Z,98232.34
2023-04-02T17:08:36.475Z,98233.75
2023-04-02T17:11:17.158Z,98240.75
2023-04-02T17:14:07.536Z,98257.28
2023-04-02T17:16:56.599Z,98252.22
2023-04-02T17:19:32.968Z,98262.38
2023-04-02T17:22:26.638Z,98260.13
2023-04-02T17:24:59.449Z,98262.91
2023-04-02T17:27:34.401Z,98270.19
2023-04-02T17:30:11.528Z,98268.72
2023-04-02T17:32:43.802Z,98272.47
2023-04-02T17:35:23.819Z,98285.81
2023-04-02T17:38:05.043Z,98291.28
2023-04-02T17:40:46.271Z,98301.13
2023-04-02T17:46:44.736Z,98294.13
2023-04-02T17:52:27.420Z,98313.81
2023-04-02T17:55:15.212Z,98320.50
2023-04-02T17:58:01.339Z,98331.31
2023-04-02T18:00:45.709Z,98330.28
2023-04-02T18:03:35.149Z,98329.72
2023-04-02T18:06:09.761Z,98340.47
2023-04-02T18:08:49.172Z,98347.66
2023-04-02T18:11:26.151Z,98342.75
2023-04-02T18:14:06.597Z,98345.56
2023-04-02T18:16:48.809Z,98354.34
2023-04-02T18:19:29.389Z,98375.16
2023-04-02T18:22:12.504Z,98365.59
2023-04-02T18:25:05.225Z,98371.50
2023-04-02T18:27:46.004Z,98380.16
2023-04-02T18:30:35.259Z,98378.50
2023-04-02T18:33:38.806Z,98388.88
2023-04-02T18:36:17.731Z,98389.94
2023-04-02T18:50:01.906Z,98410.38
2023-04-02T18:56:02.299Z,98427.09
2023-04-02T19:02:35.919Z,98428.09
2023-04-02T19:05:16.228Z,98436.88
2023-04-02T19:07:47.518Z,98443.22
2023-04-02T19:10:27.132Z,98444.00
2023-04-02T19:13:02.066Z,98452.03
2023-04-02T19:15:43.351Z,98461.44
2023-04-02T19:18:22.121Z,98460.63
2023-04-02T19:20:57.678Z,98461.78
2023-04-02T19:23:47.100Z,98469.38
2023-04-02T19:26:17.114Z,98473.03
2023-04-02T19:28:52.834Z,98472.84
2023-04-02T19:31:35.614Z,98486.88
2023-04-02T19:34:14.512Z,98482.44
2023-04-02T19:36:47.791Z,98486.66
2023-04-02T19:40:01.307Z,98493.59
2023-04-02T19:42:49.230Z,98497.09
2023-04-02T19:45:29.624Z,98496.19
2023-04-02T19:48:00.622Z,98497.91
2023-04-02T19:50:29.086Z,98505.75
2023-04-02T19:52:56.589Z,98501.56
2023-04-02T19:55:27.458Z,98503.81
2023-04-02T19:58:17.587Z,98504.56
2023-04-02T20:00:55.162Z,98503.59
2023-04-02T20:10:34.859Z,98515.41
2023-04-02T20:13:04.731Z,98521.81
2023-04-02T20:15:32.603Z,98516.97
2023-04-02T20:18:00.436Z,98521.91
2023-04-02T20:20:30.963Z,98516.00
2023-04-02T20:22:58.917Z,98521.00
2023-04-02T20:25:26.540Z,98517.28
2023-04-02T20:27:54.327Z,98519.84
2023-04-02T20:30:26.575Z,98528.94
2023-04-02T20:32:59.087Z,98519.38
2023-04-02T20:35:27.310Z,98529.59
2023-04-02T20:37:54.902Z,98532.53
2023-04-02T20:40:22.513Z,98539.69
2023-04-02T20:42:56.110Z,98541.91
2023-04-02T20:45:27.704Z,98543.47
2023-04-02T20:47:55.755Z,98555.09
2023-04-02T20:50:23.330Z,98547.94
2023-04-02T20:52:51.752Z,98558.75
2023-04-02T20:55:21.566Z,98553.47
2023-04-02T20:57:49.229Z,98564.16
2023-04-02T21:00:19.169Z,98569.28
2023-04-02T21:02:48.019Z,98570.28
2023-04-02T21:05:18.874Z,98575.75
2023-04-02T21:07:48.483Z,98579.66
2023-04-02T21:10:16.042Z,98573.41
2023-04-02T21:12:43.859Z,98579.78
2023-04-02T21:15:13.244Z,98582.19
2023-04-02T21:17:40.781Z,98589.47
2023-04-02T21:20:11.494Z,98580.28
2023-04-02T21:22:40.307Z,98577.59
2023-04-02T21:25:10.949Z,98582.31
2023-04-02T21:27:38.475Z,98582.22
2023-04-02T21:30:07.121Z,98583.16
2023-04-02T21:32:34.659Z,98588.34
2023-04-02T21:35:02.189Z,98589.50
2023-04-02T21:37:32.235Z,98577.19
2023-04-02T21:39:59.721Z,98593.09
2023-04-02T21:42:27.676Z,98591.53
2023-04-02T21:44:57.715Z,98585.25
2023-04-02T21:47:25.371Z,98597.56
2023-04-02T21:49:52.938Z,98590.94
2023-04-02T21:52:20.386Z,98595.00
2023-04-02T21:54:49.203Z,98587.91
2023-04-02T21:57:18.996Z,98600.13
2023-04-02T21:59:46.665Z,98600.19
2023-04-02T22:02:14.150Z,98602.78
2023-04-02T22:04:43.425Z,98603.84
2023-04-02T22:07:12.893Z,98604.31
2023-04-02T22:09:40.566Z,98603.47
2023-04-02T22:12:09.406Z,98613.56
2023-04-02T22:14:36.905Z,98610.13
2023-04-02T22:17:04.419Z,98604.94
2023-04-02T22:19:34.168Z,98608.69
2023-04-02T22:22:01.772Z,98614.44
2023-04-02T22:24:29.340Z,98608.38
2023-04-02T22:26:56.850Z,98610.88
2023-04-02T22:29:25.761Z,98615.56
2023-04-02T22:31:53.290Z,98620.50
2023-04-02T22:34:23.996Z,98621.56
2023-04-02T22:36:52.915Z,98622.34
2023-04-02T22:39:20.832Z,98616.22
2023-04-02T22:41:51.280Z,98631.66
2023-04-02T22:44:18.727Z,98625.22
2023-04-02T22:46:47.521Z,98624.56
2023-04-02T22:49:19.393Z,98631.28
2023-04-02T22:51:47.165Z,98629.41
2023-04-02T22:54:14.708Z,98631.00
2023-04-02T22:56:42.217Z,98630.06
2023-04-02T22:59:09.675Z,98633.75
2023-04-02T23:01:37.469Z,98633.00
2023-04-02T23:04:06.356Z,98623.59
2023-04-02T23:06:33.875Z,98630.75
2023-04-02T23:09:04.032Z,98624.16
2023-04-02T23:11:31.512Z,98629.06
2023-04-02T23:13:59.639Z,98634.44
2023-04-02T23:16:29.080Z,98640.00
2023-04-02T23:18:57.758Z,98635.47
2023-04-02T23:21:27.233Z,98638.66
2023-04-02T23:23:55.756Z,98636.44
2023-04-02T23:26:29.013Z,98638.69
2023-04-02T23:28:56.529Z,98638.38
2023-04-02T23:31:25.043Z,98641.91
2023-04-02T23:33:53.384Z,98638.78
2023-04-02T23:36:23.970Z,98635.28
2023-04-02T23:38:55.342Z,98636.88
2023-04-02T23:41:24.481Z,98634.09
2023-04-02T23:43:51.857Z,98634.31
2023-04-02T23:46:19.536Z,98622.56
2023-04-02T23:48:47.476Z,98640.75
2023-04-02T23:51:14.992Z,98637.94
2023-04-02T23:53:43.312Z,98636.25
2023-04-02T23:56:12.550Z,98636.97
2023-04-02T23:58:40.071Z,98625.59
